createdAt,value
2023-05-22T00:00:03.853Z,2.74
2023-05-22T00:01:03.913Z,2.77
2023-05-22T00:02:03.977Z,2.80
2023-05-22T00:03:04.091Z,2.94
2023-05-22T00:04:04.075Z,3.07
2023-05-22T00:05:04.251Z,3.05
2023-05-22T00:06:04.167Z,3.15
2023-05-22T00:07:04.222Z,3.19
2023-05-22T00:08:04.269Z,3.39
2023-05-22T00:09:04.328Z,3.42
2023-05-22T00:10:04.375Z,3.26
2023-05-22T00:11:04.425Z,3.37
2023-05-22T00:12:04.463Z,3.27
2023-05-22T00:13:04.532Z,3.28
2023-05-22T00:14:04.596Z,3.35
2023-05-22T00:15:04.636Z,3.36
2023-05-22T00:16:04.698Z,3.34
2023-05-22T00:17:04.811Z,3.20
2023-05-22T00:18:04.816Z,3.35
2023-05-22T00:19:04.903Z,3.42
2023-05-22T00:20:04.937Z,3.38
2023-05-22T00:21:05.053Z,3.43
2023-05-22T00:22:05.031Z,3.47
2023-05-22T00:23:05.079Z,3.35
2023-05-22T00:24:05.135Z,3.44
2023-05-22T00:25:05.191Z,3.53
2023-05-22T00:26:05.266Z,3.45
2023-05-22T00:27:05.325Z,3.55
2023-05-22T00:28:05.371Z,3.74
2023-05-22T00:29:05.446Z,3.68
2023-05-22T00:30:05.499Z,3.53
2023-05-22T00:31:05.563Z,3.74
2023-05-22T00:32:05.708Z,3.62
2023-05-22T00:33:05.714Z,3.72
2023-05-22T00:34:05.738Z,3.51
2023-05-22T00:35:05.794Z,3.53
2023-05-22T00:36:05.832Z,3.42
2023-05-22T00:37:05.904Z,3.36
2023-05-22T00:38:05.945Z,3.37
2023-05-22T00:39:06.050Z,3.28
2023-05-22T00:40:06.071Z,3.29
2023-05-22T00:41:06.144Z,3.36
2023-05-22T00:42:06.215Z,3.38
2023-05-22T00:43:06.241Z,3.45
2023-05-22T00:44:06.310Z,3.59
2023-05-22T00:45:06.388Z,3.52
2023-05-22T00:46:06.433Z,3.46
2023-05-22T00:47:06.471Z,3.34
2023-05-22T00:48:06.544Z,3.23
2023-05-22T00:49:06.575Z,3.15
2023-05-22T00:50:06.620Z,3.09
2023-05-22T00:51:06.683Z,3.11
2023-05-22T00:52:06.765Z,3.19
2023-05-22T00:53:06.776Z,3.27
2023-05-22T00:54:06.850Z,3.25
2023-05-22T00:55:06.893Z,3.40
2023-05-22T00:56:06.954Z,3.59
2023-05-22T00:57:07.052Z,3.65
2023-05-22T00:58:07.083Z,3.65
2023-05-22T00:59:07.124Z,3.50
2023-05-22T01:00:07.196Z,3.81
2023-05-22T01:01:07.256Z,3.90
2023-05-22T01:02:07.440Z,3.96
2023-05-22T01:03:07.441Z,4.02
2023-05-22T01:04:07.466Z,3.97
2023-05-22T01:05:07.499Z,3.80
2023-05-22T01:06:07.545Z,3.72
2023-05-22T01:07:07.635Z,3.59
2023-05-22T01:08:07.655Z,3.60
2023-05-22T01:09:07.712Z,3.72
2023-05-22T01:10:07.792Z,3.74
2023-05-22T01:11:07.865Z,4.01
2023-05-22T01:12:07.898Z,4.17
2023-05-22T01:13:07.956Z,4.17
2023-05-22T01:14:08.043Z,4.15
2023-05-22T01:15:08.080Z,4.19
2023-05-22T01:16:08.201Z,4.09
2023-05-22T01:17:08.204Z,4.15
2023-05-22T01:18:08.334Z,4.29
2023-05-22T01:19:08.356Z,4.15
2023-05-22T01:20:08.385Z,4.21
2023-05-22T01:21:08.432Z,4.20
2023-05-22T01:22:08.516Z,4.52
2023-05-22T01:23:08.564Z,4.43
2023-05-22T01:24:08.604Z,4.46
2023-05-22T01:25:08.680Z,4.37
2023-05-22T01:26:08.736Z,4.25
2023-05-22T01:27:08.805Z,4.17
2023-05-22T01:28:08.855Z,4.39
2023-05-22T01:29:08.929Z,4.37
2023-05-22T01:30:08.988Z,4.30
2023-05-22T01:31:09.052Z,4.48
2023-05-22T01:32:09.105Z,4.24
2023-05-22T01:33:09.262Z,4.53
2023-05-22T01:34:09.227Z,4.67
2023-05-22T01:35:09.310Z,4.91
2023-05-22T01:36:09.364Z,5.15
2023-05-22T01:37:09.410Z,4.94
2023-05-22T01:38:09.472Z,4.93
2023-05-22T01:39:09.555Z,5.05
2023-05-22T01:40:09.616Z,5.14
2023-05-22T01:41:09.660Z,5.16
2023-05-22T01:42:09.722Z,5.21
2023-05-22T01:43:09.799Z,5.32
2023-05-22T01:44:09.870Z,5.19
2023-05-22T01:45:09.916Z,5.11
2023-05-22T01:46:10.091Z,4.97
2023-05-22T01:47:10.096Z,5.03
2023-05-22T01:48:10.237Z,5.19
2023-05-22T01:49:10.169Z,4.99
2023-05-22T01:50:10.217Z,5.00
2023-05-22T01:51:10.276Z,5.00
2023-05-22T01:52:10.360Z,4.97
2023-05-22T01:53:10.409Z,4.90
2023-05-22T01:54:10.491Z,5.08
2023-05-22T01:55:10.535Z,4.93
2023-05-22T01:56:10.614Z,4.68
2023-05-22T01:57:10.671Z,4.67
2023-05-22T01:58:10.756Z,4.55
2023-05-22T01:59:10.785Z,4.58
2023-05-22T02:00:10.842Z,4.39
2023-05-22T02:01:11.130Z,4.25
2023-05-22T02:02:11.052Z,4.36
2023-05-22T02:03:11.097Z,4.19
2023-05-22T02:04:11.100Z,4.39
2023-05-22T02:05:11.150Z,4.40
2023-05-22T02:06:11.281Z,4.64
2023-05-22T02:07:12.243Z,4.51
2023-05-22T02:08:11.330Z,4.55
2023-05-22T02:09:11.411Z,4.61
2023-05-22T02:10:11.498Z,4.33
2023-05-22T02:11:11.499Z,4.30
2023-05-22T02:12:11.574Z,4.54
2023-05-22T02:13:11.618Z,4.72
2023-05-22T02:14:11.695Z,4.89
2023-05-22T02:15:11.740Z,4.86
2023-05-22T02:16:11.840Z,4.93
2023-05-22T02:17:11.858Z,5.06
2023-05-22T02:18:11.976Z,5.04
2023-05-22T02:19:11.994Z,4.95
2023-05-22T02:20:12.022Z,4.70
2023-05-22T02:21:12.055Z,4.93
2023-05-22T02:22:12.076Z,4.79
2023-05-22T02:23:12.132Z,4.77
2023-05-22T02:24:12.167Z,4.66
2023-05-22T02:25:12.204Z,4.43
2023-05-22T02:26:12.282Z,4.60
2023-05-22T02:27:12.322Z,4.49
2023-05-22T02:28:12.378Z,4.66
2023-05-22T02:29:12.424Z,4.64
2023-05-22T02:30:12.496Z,4.60
2023-05-22T02:31:12.523Z,4.83
2023-05-22T02:32:12.571Z,4.94
2023-05-22T02:33:12.618Z,4.96
2023-05-22T02:34:12.655Z,5.17
2023-05-22T02:35:12.722Z,5.24
2023-05-22T02:36:12.746Z,5.41
2023-05-22T02:37:12.827Z,5.60
2023-05-22T02:38:12.943Z,5.53
2023-05-22T02:39:12.901Z,5.51
2023-05-22T02:40:12.980Z,5.39
2023-05-22T02:41:13.016Z,5.67
2023-05-22T02:42:13.088Z,5.71
2023-05-22T02:43:13.154Z,6.02
2023-05-22T02:44:13.188Z,6.00
2023-05-22T02:45:13.220Z,6.01
2023-05-22T02:46:13.328Z,6.11
2023-05-22T02:47:13.328Z,6.18
2023-05-22T02:48:13.421Z,5.93
2023-05-22T02:49:13.438Z,5.91
2023-05-22T02:50:13.479Z,6.01
2023-05-22T02:51:13.505Z,5.89
2023-05-22T02:52:13.540Z,5.85
2023-05-22T02:53:13.587Z,6.04
2023-05-22T02:54:13.592Z,5.80
2023-05-22T02:55:13.663Z,6.10
2023-05-22T02:56:13.698Z,5.96
2023-05-22T02:57:13.748Z,6.29
2023-05-22T02:58:13.789Z,6.30
2023-05-22T02:59:13.843Z,6.25
2023-05-22T03:00:13.903Z,6.38
2023-05-22T03:01:14.005Z,6.42
2023-05-22T03:02:13.975Z,6.49
2023-05-22T03:03:14.136Z,6.78
2023-05-22T03:04:14.123Z,6.97
2023-05-22T03:05:14.114Z,6.87
2023-05-22T03:06:14.143Z,6.94
2023-05-22T03:07:14.182Z,7.14
2023-05-22T03:08:14.214Z,6.91
2023-05-22T03:09:14.247Z,6.87
2023-05-22T03:10:14.302Z,6.75
2023-05-22T03:11:14.313Z,6.58
2023-05-22T03:12:14.355Z,6.36
2023-05-22T03:13:14.373Z,6.36
2023-05-22T03:14:14.396Z,6.09
2023-05-22T03:15:14.414Z,5.96
2023-05-22T03:16:14.454Z,5.66
2023-05-22T03:17:14.448Z,5.48
2023-05-22T03:18:14.466Z,5.40
2023-05-22T03:19:14.515Z,5.47
2023-05-22T03:20:14.521Z,5.39
2023-05-22T03:21:14.513Z,5.38
2023-05-22T03:22:14.550Z,5.23
2023-05-22T03:23:14.575Z,5.22
2023-05-22T03:24:14.571Z,5.46
2023-05-22T03:25:14.603Z,5.60
2023-05-22T03:26:14.641Z,5.77
2023-05-22T03:27:14.681Z,6.07
2023-05-22T03:28:14.690Z,6.20
2023-05-22T03:29:14.738Z,6.41
2023-05-22T03:30:14.762Z,6.90
2023-05-22T03:31:14.746Z,6.79
2023-05-22T03:32:14.755Z,6.88
2023-05-22T03:33:14.790Z,7.16
2023-05-22T03:34:14.813Z,6.83
2023-05-22T03:35:14.814Z,6.90
2023-05-22T03:36:14.836Z,6.95
2023-05-22T03:37:14.842Z,6.87
2023-05-22T03:38:14.922Z,7.04
2023-05-22T03:39:14.898Z,7.24
2023-05-22T03:40:14.958Z,6.98
2023-05-22T03:41:14.954Z,6.96
2023-05-22T03:42:14.963Z,7.05
2023-05-22T03:43:14.979Z,7.41
2023-05-22T03:44:14.950Z,7.28
2023-05-22T03:45:14.966Z,7.20
2023-05-22T03:46:14.994Z,7.51
2023-05-22T03:47:14.973Z,7.84
2023-05-22T03:48:14.994Z,7.93
2023-05-22T03:49:15.072Z,8.01
2023-05-22T03:50:14.977Z,8.11
2023-05-22T03:51:14.993Z,8.12
2023-05-22T03:52:15.003Z,7.98
2023-05-22T03:53:14.979Z,7.65
2023-05-22T03:54:14.977Z,7.62
2023-05-22T03:55:14.950Z,7.63
2023-05-22T03:56:14.977Z,7.53
2023-05-22T03:57:14.975Z,7.71
2023-05-22T03:58:14.994Z,8.15
2023-05-22T03:59:14.991Z,8.06
2023-05-22T04:00:15.024Z,8.07
2023-05-22T04:01:15.030Z,7.79
2023-05-22T04:02:15.100Z,7.90
2023-05-22T04:03:15.282Z,7.84
2023-05-22T04:04:15.100Z,7.80
2023-05-22T04:05:15.136Z,7.64
2023-05-22T04:06:15.160Z,7.43
2023-05-22T04:07:15.206Z,7.15
2023-05-22T04:08:15.238Z,6.78
2023-05-22T04:09:15.248Z,7.11
2023-05-22T04:10:15.290Z,7.21
2023-05-22T04:11:15.312Z,7.14
2023-05-22T04:12:15.344Z,6.86
2023-05-22T04:13:15.344Z,6.76
2023-05-22T04:14:15.372Z,6.95
2023-05-22T04:15:15.392Z,6.90
2023-05-22T04:16:15.443Z,7.13
2023-05-22T04:17:15.420Z,7.21
2023-05-22T04:18:15.445Z,7.24
2023-05-22T04:19:15.492Z,7.31
2023-05-22T04:20:15.494Z,7.35
2023-05-22T04:21:15.524Z,7.34
2023-05-22T04:22:15.547Z,7.39
2023-05-22T04:23:15.606Z,7.39
2023-05-22T04:24:15.653Z,7.70
2023-05-22T04:25:15.692Z,7.49
2023-05-22T04:26:15.727Z,7.63
2023-05-22T04:27:15.736Z,7.35
2023-05-22T04:28:15.746Z,7.31
2023-05-22T04:29:15.770Z,6.67
2023-05-22T04:30:15.783Z,5.99
2023-05-22T04:31:15.850Z,6.00
2023-05-22T04:32:15.865Z,5.64
2023-05-22T04:33:15.948Z,5.69
2023-05-22T04:34:15.889Z,6.26
2023-05-22T04:35:15.909Z,6.77
2023-05-22T04:36:15.972Z,7.04
2023-05-22T04:37:16.054Z,7.39
2023-05-22T04:38:16.072Z,7.69
2023-05-22T04:39:16.121Z,8.22
2023-05-22T04:40:16.144Z,8.27
2023-05-22T04:41:16.192Z,8.27
2023-05-22T04:42:16.315Z,8.15
2023-05-22T04:43:16.276Z,7.72
2023-05-22T04:44:16.319Z,7.41
2023-05-22T04:45:16.378Z,7.47
2023-05-22T04:46:16.477Z,7.26
2023-05-22T04:47:16.480Z,7.08
2023-05-22T04:48:16.525Z,7.38
2023-05-22T04:49:16.544Z,7.47
2023-05-22T04:50:16.580Z,7.66
2023-05-22T04:51:16.640Z,7.66
2023-05-22T04:52:16.684Z,7.93
2023-05-22T04:53:16.802Z,7.82
2023-05-22T04:54:16.843Z,7.58
2023-05-22T04:55:16.900Z,7.33
2023-05-22T04:56:27.870Z,7.42
2023-05-22T04:57:17.943Z,7.42
2023-05-22T04:58:16.934Z,7.37
2023-05-22T04:59:16.947Z,7.01
2023-05-22T05:00:17.033Z,7.34
2023-05-22T05:01:16.960Z,7.83
2023-05-22T05:02:16.920Z,7.88
2023-05-22T05:03:17.012Z,8.32
2023-05-22T05:04:16.888Z,8.43
2023-05-22T05:05:16.891Z,8.86
2023-05-22T05:06:16.914Z,8.82
2023-05-22T05:07:16.979Z,9.18
2023-05-22T05:08:17.022Z,9.35
2023-05-22T05:09:17.059Z,9.86
2023-05-22T05:10:17.107Z,10.17
2023-05-22T05:11:17.143Z,10.69
2023-05-22T05:12:17.189Z,11.31
2023-05-22T05:13:17.220Z,12.02
2023-05-22T05:14:17.250Z,12.00
2023-05-22T05:15:17.290Z,12.61
2023-05-22T05:16:17.359Z,13.56
2023-05-22T05:17:17.470Z,14.21
2023-05-22T05:18:17.445Z,15.13
2023-05-22T05:19:17.450Z,16.19
2023-05-22T05:20:17.438Z,17.45
2023-05-22T05:21:17.506Z,14.93
2023-05-22T05:22:17.530Z,14.22
2023-05-22T05:23:17.552Z,15.18
2023-05-22T05:24:17.580Z,17.24
2023-05-22T05:25:17.587Z,17.98
2023-05-22T05:26:17.630Z,19.94
2023-05-22T05:27:17.943Z,24.95
2023-05-22T05:28:17.669Z,29.48
2023-05-22T05:29:17.747Z,33.95
2023-05-22T05:30:20.325Z,38.12
2023-05-22T05:31:17.772Z,42.01
2023-05-22T05:32:17.867Z,47.85
2023-05-22T05:33:17.736Z,53.83
2023-05-22T05:34:17.718Z,61.63
2023-05-22T05:35:17.741Z,63.62
2023-05-22T05:36:17.713Z,64.94
2023-05-22T05:37:17.748Z,66.23
2023-05-22T05:38:17.712Z,65.88
2023-05-22T05:39:17.721Z,70.20
2023-05-22T05:40:17.703Z,75.34
2023-05-22T05:41:17.686Z,74.37
2023-05-22T05:42:17.691Z,76.12
2023-05-22T05:43:17.683Z,80.47
2023-05-22T05:44:17.743Z,81.87
2023-05-22T05:45:17.672Z,83.82
2023-05-22T05:46:17.725Z,85.39
2023-05-22T05:47:17.646Z,87.43
2023-05-22T05:48:17.650Z,86.23
2023-05-22T05:49:17.631Z,83.01
2023-05-22T05:50:17.650Z,80.95
2023-05-22T05:51:17.628Z,72.17
2023-05-22T05:52:17.629Z,70.63
2023-05-22T05:53:17.631Z,70.88
2023-05-22T05:54:17.614Z,73.48
2023-05-22T05:55:17.613Z,76.26
2023-05-22T05:56:17.587Z,77.46
2023-05-22T05:57:17.596Z,76.33
2023-05-22T05:58:17.606Z,77.81
2023-05-22T05:59:17.563Z,78.12
2023-05-22T06:00:17.580Z,80.47
2023-05-22T06:01:17.552Z,81.00
2023-05-22T06:02:17.600Z,83.89
2023-05-22T06:03:17.665Z,82.03
2023-05-22T06:04:17.556Z,77.94
2023-05-22T06:05:17.575Z,81.02
2023-05-22T06:06:17.563Z,78.11
2023-05-22T06:07:17.559Z,82.74
2023-05-22T06:08:17.536Z,77.54
2023-05-22T06:09:17.534Z,80.11
2023-05-22T06:10:17.508Z,77.42
2023-05-22T06:11:17.504Z,79.32
2023-05-22T06:12:17.488Z,82.28
2023-05-22T06:13:17.472Z,82.40
2023-05-22T06:14:17.478Z,80.32
2023-05-22T06:15:17.477Z,83.81
2023-05-22T06:16:17.537Z,83.78
2023-05-22T06:17:17.467Z,85.73
2023-05-22T06:18:17.489Z,82.12
2023-05-22T06:19:17.464Z,78.31
2023-05-22T06:20:17.453Z,78.54
2023-05-22T06:21:17.425Z,79.29
2023-05-22T06:22:17.422Z,79.19
2023-05-22T06:23:17.503Z,70.83
2023-05-22T06:24:17.418Z,75.27
2023-05-22T06:25:17.405Z,72.40
2023-05-22T06:26:17.382Z,72.73
2023-05-22T06:27:17.387Z,71.74
2023-05-22T06:28:17.382Z,72.78
2023-05-22T06:29:17.511Z,70.15
2023-05-22T06:30:28.171Z,69.32
2023-05-22T06:31:18.391Z,69.41
2023-05-22T06:32:17.429Z,62.26
2023-05-22T06:33:17.398Z,57.24
2023-05-22T06:34:17.371Z,52.00
2023-05-22T06:35:17.345Z,51.52
2023-05-22T06:36:17.326Z,30.57
2023-05-22T06:37:17.327Z,41.93
2023-05-22T06:38:17.335Z,47.94
2023-05-22T06:39:17.305Z,50.28
2023-05-22T06:40:17.303Z,50.04
2023-05-22T06:41:17.387Z,49.69
2023-05-22T06:42:17.416Z,47.67
2023-05-22T06:43:17.467Z,39.21
2023-05-22T06:44:17.544Z,35.87
2023-05-22T06:45:17.699Z,35.59
2023-05-22T06:46:17.704Z,40.71
2023-05-22T06:47:17.985Z,43.35
2023-05-22T06:48:17.742Z,46.23
2023-05-22T06:49:17.794Z,46.72
2023-05-22T06:50:17.816Z,48.40
2023-05-22T06:51:17.950Z,24.87
2023-05-22T06:52:17.928Z,16.54
2023-05-22T06:53:17.997Z,11.54
2023-05-22T06:54:18.039Z,8.44
2023-05-22T06:55:18.083Z,5.72
2023-05-22T06:56:18.106Z,4.13
2023-05-22T06:57:18.112Z,3.16
2023-05-22T06:58:18.122Z,3.27
2023-05-22T06:59:18.135Z,3.03
2023-05-22T07:00:20.186Z,2.97
2023-05-22T07:01:18.192Z,2.95
2023-05-22T07:02:18.128Z,2.90
2023-05-22T07:03:18.119Z,2.82
2023-05-22T07:04:18.099Z,3.02
2023-05-22T07:05:18.150Z,2.92
2023-05-22T07:06:18.326Z,2.74
2023-05-22T07:07:18.098Z,2.44
2023-05-22T07:08:18.068Z,2.21
2023-05-22T07:09:18.068Z,2.27
2023-05-22T07:10:18.080Z,2.24
2023-05-22T07:11:18.056Z,2.27
2023-05-22T07:12:18.057Z,2.22
2023-05-22T07:13:18.037Z,2.51
2023-05-22T07:14:18.057Z,2.42
2023-05-22T07:15:18.034Z,2.31
2023-05-22T07:16:18.062Z,2.19
2023-05-22T07:17:18.582Z,1.99
2023-05-22T07:18:18.015Z,1.90
2023-05-22T07:19:18.057Z,2.27
2023-05-22T07:20:18.004Z,2.24
2023-05-22T07:21:17.975Z,2.08
2023-05-22T07:22:18.040Z,2.24
2023-05-22T07:23:17.973Z,2.06
2023-05-22T07:24:17.987Z,1.92
2023-05-22T07:25:17.955Z,1.79
2023-05-22T07:26:17.969Z,2.55
2023-05-22T07:27:17.987Z,2.44
2023-05-22T07:28:17.957Z,2.58
2023-05-22T07:29:17.938Z,3.16
2023-05-22T07:30:17.944Z,2.69
2023-05-22T07:31:17.955Z,3.05
2023-05-22T07:32:17.913Z,5.39
2023-05-22T07:33:18.010Z,7.19
2023-05-22T07:34:17.913Z,8.78
2023-05-22T07:35:17.908Z,11.23
2023-05-22T07:36:17.897Z,13.12
2023-05-22T07:37:17.883Z,15.48
2023-05-22T07:38:18.007Z,18.32
2023-05-22T07:39:17.870Z,20.56
2023-05-22T07:40:17.883Z,22.98
2023-05-22T07:41:17.886Z,24.72
2023-05-22T07:42:17.904Z,25.95
2023-05-22T07:43:17.998Z,26.62
2023-05-22T07:44:17.847Z,28.38
2023-05-22T07:45:17.848Z,28.99
2023-05-22T07:46:17.902Z,29.70
2023-05-22T07:47:17.828Z,31.26
2023-05-22T07:48:18.055Z,32.26
2023-05-22T07:49:17.867Z,31.85
2023-05-22T07:50:17.812Z,31.83
2023-05-22T07:51:17.797Z,31.91
2023-05-22T07:52:17.809Z,31.79
2023-05-22T07:53:17.808Z,31.65
2023-05-22T07:54:18.022Z,31.95
2023-05-22T07:55:17.781Z,31.80
2023-05-22T07:56:17.804Z,31.79
2023-05-22T07:57:17.763Z,31.26
2023-05-22T07:58:18.027Z,30.79
2023-05-22T07:59:17.795Z,32.05
2023-05-22T08:00:18.019Z,32.34
2023-05-22T08:01:17.757Z,32.87
2023-05-22T08:02:17.792Z,34.08
2023-05-22T08:03:18.151Z,34.30
2023-05-22T08:04:17.838Z,34.19
2023-05-22T08:05:18.065Z,34.08
2023-05-22T08:06:17.715Z,34.17
2023-05-22T08:07:17.711Z,33.34
2023-05-22T08:08:17.694Z,33.30
2023-05-22T08:09:17.695Z,31.18
2023-05-22T08:10:17.690Z,28.58
2023-05-22T08:11:17.692Z,28.05
2023-05-22T08:12:17.737Z,27.44
2023-05-22T08:13:17.828Z,27.24
2023-05-22T08:14:17.855Z,26.98
2023-05-22T08:15:17.860Z,26.36
2023-05-22T08:16:17.890Z,25.84
2023-05-22T08:17:17.982Z,25.09
2023-05-22T08:18:18.037Z,25.03
2023-05-22T08:19:18.141Z,24.61
2023-05-22T08:20:18.179Z,24.24
2023-05-22T08:21:18.187Z,21.96
2023-05-22T08:22:18.230Z,20.20
2023-05-22T08:23:18.536Z,18.98
2023-05-22T08:24:18.308Z,18.66
2023-05-22T08:25:18.327Z,17.67
2023-05-22T08:26:18.364Z,11.37
2023-05-22T08:27:18.417Z,4.64
2023-05-22T08:28:18.477Z,3.85
2023-05-22T08:29:18.480Z,2.92
2023-05-22T08:30:18.524Z,3.29
2023-05-22T08:31:18.556Z,2.76
2023-05-22T08:32:18.526Z,2.89
2023-05-22T08:33:18.560Z,3.18
2023-05-22T08:34:19.024Z,1.82
2023-05-22T08:35:18.543Z,2.06
2023-05-22T08:36:18.600Z,1.76
2023-05-22T08:37:18.543Z,1.47
2023-05-22T08:38:18.550Z,1.32
2023-05-22T08:39:19.081Z,1.43
2023-05-22T08:40:18.582Z,0.85
2023-05-22T08:41:18.632Z,0.63
2023-05-22T08:42:18.712Z,0.66
2023-05-22T08:43:18.753Z,0.82
2023-05-22T08:44:18.831Z,0.54
2023-05-22T08:45:18.873Z,0.51
2023-05-22T08:46:18.950Z,0.50
2023-05-22T08:47:19.196Z,0.47
2023-05-22T08:48:19.068Z,0.41
2023-05-22T08:49:19.875Z,0.50
2023-05-22T08:50:19.048Z,0.49
2023-05-22T08:51:19.093Z,0.49
2023-05-22T08:52:19.132Z,0.54
2023-05-22T08:53:19.232Z,0.51
2023-05-22T08:54:19.191Z,0.50
2023-05-22T08:55:19.208Z,0.55
2023-05-22T08:56:19.217Z,0.69
2023-05-22T08:57:19.269Z,0.91
2023-05-22T08:58:19.276Z,1.39
2023-05-22T08:59:19.544Z,0.90
2023-05-22T09:00:19.344Z,0.81
2023-05-22T09:01:19.385Z,0.75
2023-05-22T09:02:19.351Z,0.62
2023-05-22T09:03:19.385Z,0.50
2023-05-22T09:04:19.369Z,0.45
2023-05-22T09:05:19.399Z,0.46
2023-05-22T09:06:19.384Z,0.37
2023-05-22T09:07:19.395Z,0.47
2023-05-22T09:08:21.230Z,0.51
2023-05-22T09:09:19.464Z,0.50
2023-05-22T09:10:19.415Z,0.53
2023-05-22T09:11:19.427Z,0.60
2023-05-22T09:12:19.420Z,0.68
2023-05-22T09:13:19.429Z,0.59
2023-05-22T09:14:19.438Z,0.65
2023-05-22T09:15:19.472Z,0.86
2023-05-22T09:16:19.507Z,0.64
2023-05-22T09:17:19.463Z,0.57
2023-05-22T09:18:19.548Z,0.50
2023-05-22T09:19:19.526Z,0.42
2023-05-22T09:20:19.459Z,0.41
2023-05-22T09:21:29.723Z,0.47
2023-05-22T09:22:21.773Z,0.47
2023-05-22T09:23:19.425Z,0.47
2023-05-22T09:24:19.432Z,0.47
2023-05-22T09:25:19.449Z,0.48
2023-05-22T09:26:19.425Z,0.59
2023-05-22T09:27:19.404Z,1.02
2023-05-22T09:28:19.420Z,0.65
2023-05-22T09:29:19.401Z,0.55
2023-05-22T09:30:19.408Z,0.50
2023-05-22T09:31:19.482Z,0.46
2023-05-22T09:32:19.379Z,0.56
2023-05-22T09:33:19.559Z,0.58
2023-05-22T09:34:19.361Z,0.54
2023-05-22T09:35:19.370Z,0.46
2023-05-22T09:36:19.357Z,0.44
2023-05-22T09:37:19.330Z,0.43
2023-05-22T09:38:19.581Z,0.51
2023-05-22T09:39:19.324Z,0.47
2023-05-22T09:40:19.321Z,0.82
2023-05-22T09:41:19.313Z,1.15
2023-05-22T09:42:19.320Z,1.62
2023-05-22T09:43:19.305Z,2.28
2023-05-22T09:44:19.284Z,3.30
2023-05-22T09:45:19.273Z,2.38
2023-05-22T09:46:19.323Z,2.05
2023-05-22T09:47:19.301Z,1.56
2023-05-22T09:48:19.558Z,0.97
2023-05-22T09:49:19.282Z,0.88
2023-05-22T09:50:19.275Z,0.96
2023-05-22T09:51:19.256Z,0.62
2023-05-22T09:52:19.239Z,0.48
2023-05-22T09:53:19.222Z,0.50
2023-05-22T09:54:19.221Z,0.52
2023-05-22T09:55:19.219Z,0.47
2023-05-22T09:56:27.225Z,0.51
2023-05-22T09:57:20.216Z,0.52
2023-05-22T09:58:19.197Z,0.51
2023-05-22T09:59:19.190Z,0.55
2023-05-22T10:00:19.194Z,0.65
2023-05-22T10:01:19.242Z,0.59
2023-05-22T10:02:19.171Z,0.50
2023-05-22T10:03:19.554Z,0.55
2023-05-22T10:04:19.220Z,0.55
2023-05-22T10:05:19.164Z,0.49
2023-05-22T10:06:19.175Z,0.50
2023-05-22T10:07:19.209Z,0.49
2023-05-22T10:08:19.260Z,0.52
2023-05-22T10:09:19.785Z,0.57
2023-05-22T10:10:19.327Z,0.69
2023-05-22T10:11:19.391Z,0.99
2023-05-22T10:12:19.447Z,1.72
2023-05-22T10:13:19.591Z,2.14
2023-05-22T10:14:19.537Z,2.41
2023-05-22T10:15:19.607Z,2.04
2023-05-22T10:16:19.691Z,1.06
2023-05-22T10:17:19.733Z,0.73
2023-05-22T10:18:19.778Z,0.75
2023-05-22T10:19:20.096Z,0.60
2023-05-22T10:20:19.887Z,0.52
2023-05-22T10:21:19.930Z,0.65
2023-05-22T10:22:19.960Z,0.54
2023-05-22T10:23:20.063Z,0.50
2023-05-22T10:24:20.068Z,0.47
2023-05-22T10:25:20.121Z,0.43
2023-05-22T10:26:20.167Z,0.41
2023-05-22T10:27:20.200Z,0.54
2023-05-22T10:28:20.251Z,1.16
2023-05-22T10:29:20.669Z,2.70
2023-05-22T10:30:20.343Z,7.23
2023-05-22T10:31:20.326Z,14.99
2023-05-22T10:32:20.345Z,16.31
2023-05-22T10:33:20.705Z,29.52
2023-05-22T10:34:20.348Z,22.44
2023-05-22T10:35:20.351Z,10.46
2023-05-22T10:36:20.369Z,4.08
2023-05-22T10:37:20.899Z,2.83
2023-05-22T10:38:20.342Z,2.24
2023-05-22T10:39:20.354Z,1.09
2023-05-22T10:40:20.466Z,0.60
2023-05-22T10:41:20.381Z,0.49
2023-05-22T10:42:20.404Z,0.50
2023-05-22T10:43:20.463Z,0.42
2023-05-22T10:44:20.506Z,0.46
2023-05-22T10:45:20.669Z,0.50
2023-05-22T10:46:20.714Z,0.54
2023-05-22T10:47:20.674Z,0.57
2023-05-22T10:48:20.692Z,0.62
2023-05-22T10:49:20.705Z,1.39
2023-05-22T10:50:20.699Z,10.21
2023-05-22T10:51:20.690Z,23.93
2023-05-22T10:52:20.714Z,16.07
2023-05-22T10:53:20.741Z,18.49
2023-05-22T10:54:20.748Z,6.99
2023-05-22T10:55:20.734Z,5.85
2023-05-22T10:56:23.611Z,3.46
2023-05-22T10:57:20.757Z,3.50
2023-05-22T10:58:20.755Z,3.50
2023-05-22T10:59:20.742Z,1.33
2023-05-22T11:00:20.754Z,0.83
2023-05-22T11:01:20.840Z,0.73
2023-05-22T11:02:20.819Z,0.65
2023-05-22T11:03:21.196Z,2.33
2023-05-22T11:04:20.809Z,1.08
2023-05-22T11:05:20.726Z,2.25
2023-05-22T11:06:20.691Z,7.08
2023-05-22T11:07:20.672Z,13.03
2023-05-22T11:08:20.680Z,29.27
2023-05-22T11:09:20.685Z,64.44
2023-05-22T11:10:20.670Z,88.53
2023-05-22T11:11:20.645Z,159.53
2023-05-22T11:12:20.710Z,147.38
2023-05-22T11:13:21.113Z,253.25
2023-05-22T11:14:20.623Z,458.35
2023-05-22T11:15:20.631Z,679.66
2023-05-22T11:16:20.645Z,738.32
2023-05-22T11:17:20.685Z,642.65
2023-05-22T11:18:21.135Z,621.39
2023-05-22T11:19:23.817Z,638.52
2023-05-22T11:20:20.635Z,752.18
2023-05-22T11:21:20.594Z,746.04
2023-05-22T11:22:20.594Z,863.93
2023-05-22T11:23:20.572Z,934.39
2023-05-22T11:24:20.583Z,1000.00
2023-05-22T11:25:20.573Z,1000.00
2023-05-22T11:26:20.566Z,1000.00
2023-05-22T11:27:20.546Z,1000.00
2023-05-22T11:28:20.576Z,1000.00
2023-05-22T11:29:20.536Z,1000.00
2023-05-22T11:30:20.514Z,1000.00
2023-05-22T11:31:20.566Z,1000.00
2023-05-22T11:32:20.535Z,1000.00
2023-05-22T11:33:20.759Z,1000.00
2023-05-22T11:34:20.523Z,1000.00
2023-05-22T11:35:20.487Z,1000.00
2023-05-22T11:36:20.481Z,1000.00
2023-05-22T11:37:20.504Z,1000.00
2023-05-22T11:38:20.508Z,1000.00
2023-05-22T11:39:20.479Z,1000.00
2023-05-22T11:40:20.475Z,1000.00
2023-05-22T11:41:20.468Z,1000.00
2023-05-22T11:42:20.476Z,1000.00
2023-05-22T11:43:20.460Z,1000.00
2023-05-22T11:44:20.441Z,1000.00
2023-05-22T11:45:20.447Z,1000.00
2023-05-22T11:46:20.470Z,1000.00
2023-05-22T11:47:20.419Z,1000.00
2023-05-22T11:48:20.422Z,1000.00
2023-05-22T11:49:20.548Z,1000.00
2023-05-22T11:50:33.177Z,1000.00
2023-05-22T11:51:21.516Z,1000.00
2023-05-22T11:52:20.521Z,1000.00
2023-05-22T11:53:20.508Z,1000.00
2023-05-22T11:54:20.486Z,1000.00
2023-05-22T11:55:20.482Z,1000.00
2023-05-22T11:56:20.488Z,1000.00
2023-05-22T11:57:20.473Z,1000.00
2023-05-22T11:58:20.454Z,1000.00
2023-05-22T11:59:20.444Z,1000.00
2023-05-22T12:00:20.493Z,1000.00
2023-05-22T12:01:20.437Z,1000.00
2023-05-22T12:02:20.442Z,1000.00
2023-05-22T12:03:20.677Z,1000.00
2023-05-22T12:04:20.515Z,1000.00
2023-05-22T12:05:20.501Z,1000.00
2023-05-22T12:06:20.452Z,1000.00
2023-05-22T12:07:20.396Z,1000.00
2023-05-22T12:08:20.609Z,1000.00
2023-05-22T12:09:20.404Z,1000.00
2023-05-22T12:10:20.376Z,1000.00
2023-05-22T12:11:20.377Z,1000.00
2023-05-22T12:12:22.340Z,1000.00
2023-05-22T12:13:20.382Z,1000.00
2023-05-22T12:14:20.356Z,1000.00
2023-05-22T12:15:20.361Z,1000.00
2023-05-22T12:16:20.423Z,1000.00
2023-05-22T12:17:20.337Z,1000.00
2023-05-22T12:18:20.325Z,998.52
2023-05-22T12:19:20.338Z,981.04
2023-05-22T12:20:20.332Z,915.89
2023-05-22T12:21:20.400Z,903.50
2023-05-22T12:22:22.593Z,905.11
2023-05-22T12:23:20.311Z,874.05
2023-05-22T12:24:20.299Z,825.32
2023-05-22T12:25:20.520Z,835.61
2023-05-22T12:26:20.287Z,786.90
2023-05-22T12:27:20.294Z,686.02
2023-05-22T12:28:20.275Z,724.15
2023-05-22T12:29:20.264Z,761.92
2023-05-22T12:30:20.252Z,703.00
2023-05-22T12:31:20.243Z,694.72
2023-05-22T12:32:20.309Z,702.39
2023-05-22T12:33:20.295Z,670.46
2023-05-22T12:34:20.231Z,670.91
2023-05-22T12:35:20.238Z,658.12
2023-05-22T12:36:20.228Z,667.96
2023-05-22T12:37:20.295Z,565.68
2023-05-22T12:38:20.210Z,595.58
2023-05-22T12:39:20.204Z,558.39
2023-05-22T12:40:20.229Z,604.62
2023-05-22T12:41:20.191Z,620.79
2023-05-22T12:42:20.167Z,555.67
2023-05-22T12:43:20.176Z,567.48
2023-05-22T12:44:20.150Z,607.65
2023-05-22T12:45:20.149Z,595.14
2023-05-22T12:46:20.213Z,594.10
2023-05-22T12:47:20.149Z,547.49
2023-05-22T12:48:20.140Z,547.02
2023-05-22T12:49:20.122Z,520.10
2023-05-22T12:50:20.115Z,551.59
2023-05-22T12:51:20.293Z,542.51
2023-05-22T12:52:20.147Z,552.66
2023-05-22T12:53:20.191Z,548.47
2023-05-22T12:54:20.100Z,557.98
2023-05-22T12:55:20.088Z,543.77
2023-05-22T12:56:20.065Z,552.33
2023-05-22T12:57:20.069Z,514.31
2023-05-22T12:58:20.084Z,553.56
2023-05-22T12:59:20.927Z,547.26
2023-05-22T13:00:20.065Z,526.56
2023-05-22T13:01:20.064Z,493.31
2023-05-22T13:02:20.052Z,486.64
2023-05-22T13:03:20.038Z,455.20